Domov               UVHVVR             MKGP            O straneh              
ZDRAVSTVENO VARSTVO RASTLIN
  MREŽA AGROMET. POSTAJ
 ► PROGNOSTIČNA OBVESTILA
AGROMETEOROLOŠKI PODATKI -
ARSO
OBVLADOVANJE TVEGANJ ZARADI
NEUGODNIH VREMENSKIH RAZMER
  ► NARAVNE NESREČE
  ► SUŠA/MOČA
  ► NAMAKANJE
  ► ŽLED (gozdarstvo)
KARTOGRAFSKI PRIKAZI
SPLETNE POVEZAVE
PROJEKTI IN PUBLIKACIJE

AGROMETEOROLOŠKA MREŽA: VREMENSKE POSTAJE IN FENOLOŠKA OPAZOVANJA

Pregled podatkov za lokacijo Stara Nova vas, meteorološka postaja 49162

Pregled senzorjev na lokaciji

ID Ime Zadnja
vrednost
Datum
zadnje
spremembe
Tip
senzorja
3704 Temperatura 2 m ( °C) 29,96 °C 17.8.2017 19:00 50YA
3705 Relativna vlaga 2 m (% RH) 43,94 % RH 17.8.2017 19:00 50YA
3706 Omočenost lista (U) 0 U 17.8.2017 19:00 A730WET
3707 Sončno sevanje (W/m2) 125,8 W/m2 17.8.2017 19:00 Pyranometer SP-Lite
3708 Temperatura tal ( °C) 20,84 °C 17.8.2017 19:00 99TG411E
3709 Hitrost vetra (km/h) 1,29 km/h 17.8.2017 19:00 566.2S-176 (200km/h)
3710 Smer vetra (°) 283,53 ° 17.8.2017 19:00 566.2S-130
3711 Padavine 0.2 mm (mm) 0 mm 17.8.2017 19:00 Rain-O-Matic

Pregled podatkov zadnjih 24 ur

Zap.
št.
Datum in čas Stara Nova vas
Hitrost
vetra
Omočenost
lista
Padavine
0.2
mm
Relativna
vlaga
2
m
Smer
vetra
Sončno
sevanje
Temperatura
2
m
Temperatura
tal
0 17.8.2017 18:00 1,29 0 0 43,94 283,53 125,8 29,96 20,84
1 17.8.2017 17:30 3,93 0 0 42,53 259,37 197,12 30,18 20,92
2 17.8.2017 17:00 2,25 0 0 42,49 301,04 259,49 30,66 20,99
3 17.8.2017 16:30 3,8 0 0 44,48 316,84 349,34 30,61 21,04
4 17.8.2017 16:00 4,45 0 0 44,42 263,91 436,29 30,56 21,06
5 17.8.2017 15:30 4,2 0 0 45,93 182,84 500,83 30,77 21,06
6 17.8.2017 15:00 3,72 0 0 47,04 184,34 553,41 30,63 21,05
7 17.8.2017 14:30 3,04 0 0 47 106,37 611,46 30,36 21,02
8 17.8.2017 14:00 3,66 0 0 47,88 201,52 652,93 29,86 20,96
9 17.8.2017 13:30 4,09 0 0 47,78 11,12 689,95 29,28 20,87
10 17.8.2017 13:00 6,51 0 0 50,05 253,08 716,01 28,83 20,72
11 17.8.2017 12:30 7,08 0 0 52,05 278,15 730,3 28,16 20,52
12 17.8.2017 12:00 4,39 0 0 53,69 258,82 731,49 27,73 20,35
13 17.8.2017 11:30 4,19 0 0 56,51 81,98 711,28 27,14 20,12
14 17.8.2017 11:00 3,29 0 0 58,63 46,45 681,41 26,76 19,9
15 17.8.2017 10:30 4,96 0 0 60,42 343,24 641,03 25,98 19,68
16 17.8.2017 10:00 4,25 0 0 61,9 358,8 596,81 25,54 19,41
17 17.8.2017 09:30 4,52 0 0 65,24 80,55 543,86 24,65 19,15
18 17.8.2017 09:00 4,7 0 0 68,83 339 480,05 23,74 18,95
19 17.8.2017 08:30 5,92 0 0 74,99 302,54 410,96 22,66 18,73
20 17.8.2017 08:00 4,84 0 0 79,55 310,1 334,78 21,73 18,64
21 17.8.2017 07:30 4,76 0 0 84,6 352,36 121,07 20,5 18,57
22 17.8.2017 07:00 1,72 9 0 88,68 294,77 42,15 19,66 18,47
23 17.8.2017 06:30 0,77 10 0 96,76 192,58 68,82 18,26 18,36
24 17.8.2017 06:00 0,22 10 0 100 179,31 59,21 16,48 18,31
25 17.8.2017 05:30 0,3 10 0 100 187,12 12,33 15,57 18,33
26 17.8.2017 05:00 0,76 10 0 100 187,1 1,8 15,71 18,4
27 17.8.2017 04:30 1,34 10 0 100 231,62 0,52 15,79 18,51
28 17.8.2017 04:00 0,11 10 0 100 149,56 0,52 16,06 18,61
29 17.8.2017 03:30 0,11 9 0 100 149,21 0,61 16,69 18,69
30 17.8.2017 03:00 0,76 6 0 99,86 150,6 0,52 17,09 18,77
31 17.8.2017 02:30 1,14 4 0 96,26 203,81 0,52 17,73 18,86
32 17.8.2017 02:00 3,83 1 0 91,4 251,04 0,55 18,89 18,93
33 17.8.2017 01:30 1,01 3 0 91,88 254,22 0,55 18,75 18,98
34 17.8.2017 01:00 2,23 2 0 91,27 264,04 0,58 18,97 19,05
35 17.8.2017 00:30 3,48 1 0 90,53 280,38 0,55 19,15 19,13
36 17.8.2017 00:00 0,7 2 0 89,93 265,41 19,29 19,21
37 16.8.2017 23:30 1,67 1 0 87,8 259,58 19,67 19,29
38 16.8.2017 23:00 3,7 0 0 88 295,86 19,83 19,39
39 16.8.2017 22:30 4,84 0 0 86,1 315,44 20,39 19,47
40 16.8.2017 22:00 2,94 1 0 87,67 306,16 20,46 19,55
41 16.8.2017 21:30 2,2 0 0 86,24 260,4 20,87 19,65
42 16.8.2017 21:00 1,48 0 0 83,29 263,33 21,37 19,77
43 16.8.2017 20:30 5,3 0 0 80,15 287,64 21,97 19,89
44 16.8.2017 20:00 4,56 0 0 79,19 304,62 22,47 20,01
45 16.8.2017 19:30 6,33 0 0 76,11 275 23,4 20,12
© 2011 Ministrstvo za kmetijstvo, gozdarstvo in prehrano. Vse pravice pridržane.